Forrest, Australia
Current Conditions -  °F | °C
As of 8:00 AM on Tuesday 23 Dec 2014 (Local Time) from YCDU Reporting Station
Overcast Overcast  
Wind Chill: 68°   Ceiling: 4000
Heat Index: 68°   Visibility: 6mi
Dew Point: 50°   Wind: 18mph
Humidity: 52%   Direction: 200°SSW
Pressure: 30.03"   Gusts: NA
Location:  30.83°S, 128.1°E
Report Text: YCDU 230000Z AUTO 20016KT 9999 // SCT030 OVC040 20/10 Q1017
Loading
Personal Weather Stations






























Interactive Weather Map New forecast layout! Learn more

10-Day Weather Forecast

Advertisements
Track Severe Weather on mobile